Brooklin, Maine
Current Conditions -  °F | °C
As of 9:55 PM on Monday 22 Dec 2014 (Local Time) from KBHB Reporting Station
Overcast Overcast  
Wind Chill: 36°   Ceiling: 900
Heat Index: 36°   Visibility: 10mi
Dew Point: 36°   Wind: 3mph
Humidity: 100%   Direction: 30°NNE
Pressure: 30.4"   Gusts: NA
Location:  44.27°N, 68.57°W
Report Text: KBHB 230255Z AUTO 03003KT 10SM BKN009 OVC050 02/02 A3040 RMK AO1 57007
Loading
Personal Weather Stations






























Interactive Weather Map New forecast layout! Learn more

10-Day Weather Forecast

Advertisements
Track Severe Weather on mobile